sensor_id;sensor_type;location;lat;lon;timestamp;temperature;humidity
2453;DHT22;63678;47.994;7.854;2023-02-20T00:00:34;9.40;99.90
2453;DHT22;63678;47.994;7.854;2023-02-20T00:03:07;9.30;99.90
2453;DHT22;63678;47.994;7.854;2023-02-20T00:05:39;9.20;99.90
2453;DHT22;63678;47.994;7.854;2023-02-20T00:08:12;9.20;99.90
2453;DHT22;63678;47.994;7.854;2023-02-20T00:13:17;9.00;99.90
2453;DHT22;63678;47.994;7.854;2023-02-20T00:15:49;9.00;99.90
2453;DHT22;63678;47.994;7.854;2023-02-20T00:18:21;9.00;99.90
2453;DHT22;63678;47.994;7.854;2023-02-20T00:20:53;8.90;99.90
2453;DHT22;63678;47.994;7.854;2023-02-20T00:25:58;8.80;99.90
2453;DHT22;63678;47.994;7.854;2023-02-20T00:28:31;8.80;99.90
2453;DHT22;63678;47.994;7.854;2023-02-20T00:31:05;8.80;99.90
2453;DHT22;63678;47.994;7.854;2023-02-20T00:33:40;8.80;99.90
2453;DHT22;63678;47.994;7.854;2023-02-20T00:36:22;8.80;99.90
2453;DHT22;63678;47.994;7.854;2023-02-20T00:38:54;8.70;99.90
2453;DHT22;63678;47.994;7.854;2023-02-20T00:41:27;8.70;99.90
2453;DHT22;63678;47.994;7.854;2023-02-20T00:43:59;8.60;99.90
2453;DHT22;63678;47.994;7.854;2023-02-20T00:49:04;8.50;99.90
2453;DHT22;63678;47.994;7.854;2023-02-20T00:51:49;8.40;99.90
2453;DHT22;63678;47.994;7.854;2023-02-20T00:56:55;8.20;99.90
2453;DHT22;63678;47.994;7.854;2023-02-20T00:59:28;8.20;99.90
2453;DHT22;63678;47.994;7.854;2023-02-20T01:02:00;8.10;99.90
2453;DHT22;63678;47.994;7.854;2023-02-20T01:04:33;8.10;99.90
2453;DHT22;63678;47.994;7.854;2023-02-20T01:07:06;8.00;99.90
2453;DHT22;63678;47.994;7.854;2023-02-20T01:09:38;8.10;99.90
2453;DHT22;63678;47.994;7.854;2023-02-20T01:12:10;8.10;99.90
2453;DHT22;63678;47.994;7.854;2023-02-20T01:14:43;8.10;99.90
2453;DHT22;63678;47.994;7.854;2023-02-20T01:19:47;8.00;99.90
2453;DHT22;63678;47.994;7.854;2023-02-20T01:22:23;8.00;99.90
2453;DHT22;63678;47.994;7.854;2023-02-20T01:27:28;8.00;99.90
2453;DHT22;63678;47.994;7.854;2023-02-20T01:30:01;7.90;99.90
2453;DHT22;63678;47.994;7.854;2023-02-20T01:32:33;7.90;99.90
2453;DHT22;63678;47.994;7.854;2023-02-20T01:35:05;7.90;99.90
2453;DHT22;63678;47.994;7.854;2023-02-20T01:40:19;8.00;99.90
2453;DHT22;63678;47.994;7.854;2023-02-20T01:48:00;7.90;99.90
2453;DHT22;63678;47.994;7.854;2023-02-20T01:50:41;7.80;99.90
2453;DHT22;63678;47.994;7.854;2023-02-20T01:53:18;7.80;99.90
2453;DHT22;63678;47.994;7.854;2023-02-20T01:55:55;7.70;99.90
2453;DHT22;63678;47.994;7.854;2023-02-20T01:58:39;7.70;99.90
2453;DHT22;63678;47.994;7.854;2023-02-20T02:01:13;7.60;99.90
2453;DHT22;63678;47.994;7.854;2023-02-20T02:03:48;7.60;99.90
2453;DHT22;63678;47.994;7.854;2023-02-20T02:06:26;7.50;99.90
2453;DHT22;63678;47.994;7.854;2023-02-20T02:09:04;7.50;99.90
2453;DHT22;63678;47.994;7.854;2023-02-20T02:11:40;7.40;99.90
2453;DHT22;63678;47.994;7.854;2023-02-20T02:14:12;7.30;99.90
2453;DHT22;63678;47.994;7.854;2023-02-20T02:23:37;7.00;99.90
2453;DHT22;63678;47.994;7.854;2023-02-20T02:43:07;7.00;99.90
2453;DHT22;63678;47.994;7.854;2023-02-20T02:46:03;7.10;99.90
2453;DHT22;63678;47.994;7.854;2023-02-20T02:48:43;7.00;99.90
2453;DHT22;63678;47.994;7.854;2023-02-20T02:51:25;7.00;99.90
2453;DHT22;63678;47.994;7.854;2023-02-20T02:54:09;6.90;99.90
2453;DHT22;63678;47.994;7.854;2023-02-20T02:56:46;7.00;99.90
2453;DHT22;63678;47.994;7.854;2023-02-20T02:59:26;7.00;99.90
2453;DHT22;63678;47.994;7.854;2023-02-20T03:02:08;7.00;99.90
2453;DHT22;63678;47.994;7.854;2023-02-20T03:04:46;7.00;99.90
2453;DHT22;63678;47.994;7.854;2023-02-20T03:07:22;7.00;99.90
2453;DHT22;63678;47.994;7.854;2023-02-20T03:10:03;6.90;99.90
2453;DHT22;63678;47.994;7.854;2023-02-20T03:12:40;6.90;99.90
2453;DHT22;63678;47.994;7.854;2023-02-20T03:15:26;7.00;99.90
2453;DHT22;63678;47.994;7.854;2023-02-20T03:18:23;6.80;99.90
2453;DHT22;63678;47.994;7.854;2023-02-20T03:21:02;6.60;99.90
2453;DHT22;63678;47.994;7.854;2023-02-20T03:23:45;6.60;99.90
2453;DHT22;63678;47.994;7.854;2023-02-20T03:26:30;6.50;99.90
2453;DHT22;63678;47.994;7.854;2023-02-20T03:29:16;6.40;99.90
2453;DHT22;63678;47.994;7.854;2023-02-20T03:32:10;6.40;99.90
2453;DHT22;63678;47.994;7.854;2023-02-20T03:35:04;6.30;99.90
2453;DHT22;63678;47.994;7.854;2023-02-20T03:37:57;6.30;99.90
2453;DHT22;63678;47.994;7.854;2023-02-20T03:40:51;6.30;99.90
2453;DHT22;63678;47.994;7.854;2023-02-20T03:43:43;6.40;99.90
2453;DHT22;63678;47.994;7.854;2023-02-20T03:46:22;6.40;99.90
2453;DHT22;63678;47.994;7.854;2023-02-20T03:49:02;6.40;99.90
2453;DHT22;63678;47.994;7.854;2023-02-20T03:51:37;6.40;99.90
2453;DHT22;63678;47.994;7.854;2023-02-20T03:54:17;6.40;99.90
2453;DHT22;63678;47.994;7.854;2023-02-20T03:56:56;6.20;99.90
2453;DHT22;63678;47.994;7.854;2023-02-20T03:59:37;6.30;99.90
2453;DHT22;63678;47.994;7.854;2023-02-20T04:02:28;6.30;99.90
2453;DHT22;63678;47.994;7.854;2023-02-20T04:05:06;6.10;99.90
2453;DHT22;63678;47.994;7.854;2023-02-20T04:10:39;6.30;99.90
2453;DHT22;63678;47.994;7.854;2023-02-20T04:13:16;6.30;99.90
2453;DHT22;63678;47.994;7.854;2023-02-20T04:15:52;6.20;99.90
2453;DHT22;63678;47.994;7.854;2023-02-20T04:18:26;6.10;99.90
2453;DHT22;63678;47.994;7.854;2023-02-20T04:21:01;6.10;99.90
2453;DHT22;63678;47.994;7.854;2023-02-20T04:23:44;6.10;99.90
2453;DHT22;63678;47.994;7.854;2023-02-20T04:26:20;6.00;99.90
2453;DHT22;63678;47.994;7.854;2023-02-20T04:28:54;5.90;99.90
2453;DHT22;63678;47.994;7.854;2023-02-20T04:31:27;6.00;99.90
2453;DHT22;63678;47.994;7.854;2023-02-20T04:34:00;6.00;99.90
2453;DHT22;63678;47.994;7.854;2023-02-20T04:39:07;6.10;99.90
2453;DHT22;63678;47.994;7.854;2023-02-20T04:44:14;5.90;99.90
2453;DHT22;63678;47.994;7.854;2023-02-20T04:47:13;5.90;99.90
2453;DHT22;63678;47.994;7.854;2023-02-20T04:49:47;5.90;99.90
2453;DHT22;63678;47.994;7.854;2023-02-20T04:52:25;5.90;99.90
2453;DHT22;63678;47.994;7.854;2023-02-20T04:55:18;6.00;99.90
2453;DHT22;63678;47.994;7.854;2023-02-20T04:57:54;5.90;99.90
2453;DHT22;63678;47.994;7.854;2023-02-20T05:00:32;5.80;99.90
2453;DHT22;63678;47.994;7.854;2023-02-20T05:05:38;5.80;99.90
2453;DHT22;63678;47.994;7.854;2023-02-20T05:13:15;6.40;99.90
2453;DHT22;63678;47.994;7.854;2023-02-20T05:18:28;5.90;99.90
2453;DHT22;63678;47.994;7.854;2023-02-20T05:21:01;5.70;99.90
2453;DHT22;63678;47.994;7.854;2023-02-20T05:28:59;5.50;99.90
2453;DHT22;63678;47.994;7.854;2023-02-20T05:34:05;5.50;99.90
2453;DHT22;63678;47.994;7.854;2023-02-20T05:36:38;5.30;99.90
2453;DHT22;63678;47.994;7.854;2023-02-20T05:39:11;5.20;99.90
2453;DHT22;63678;47.994;7.854;2023-02-20T05:41:43;5.20;99.90
2453;DHT22;63678;47.994;7.854;2023-02-20T05:44:15;5.20;99.90
2453;DHT22;63678;47.994;7.854;2023-02-20T05:49:20;5.00;99.90
2453;DHT22;63678;47.994;7.854;2023-02-20T05:51:56;5.20;99.90
2453;DHT22;63678;47.994;7.854;2023-02-20T05:57:04;5.20;99.90
2453;DHT22;63678;47.994;7.854;2023-02-20T05:59:36;5.20;99.90
2453;DHT22;63678;47.994;7.854;2023-02-20T06:02:09;5.20;99.90
2453;DHT22;63678;47.994;7.854;2023-02-20T06:05:03;5.20;99.90
2453;DHT22;63678;47.994;7.854;2023-02-20T06:07:36;5.10;99.90
2453;DHT22;63678;47.994;7.854;2023-02-20T06:10:31;5.10;99.90
2453;DHT22;63678;47.994;7.854;2023-02-20T06:15:37;4.90;99.90
2453;DHT22;63678;47.994;7.854;2023-02-20T06:18:09;4.70;99.90
2453;DHT22;63678;47.994;7.854;2023-02-20T06:23:15;4.90;99.90
2453;DHT22;63678;47.994;7.854;2023-02-20T06:25:47;5.00;99.90
2453;DHT22;63678;47.994;7.854;2023-02-20T06:28:19;5.00;99.90
2453;DHT22;63678;47.994;7.854;2023-02-20T06:31:20;4.90;99.90
2453;DHT22;63678;47.994;7.854;2023-02-20T06:33:54;5.00;99.90
2453;DHT22;63678;47.994;7.854;2023-02-20T06:36:29;4.90;99.90
2453;DHT22;63678;47.994;7.854;2023-02-20T06:39:04;4.90;99.90
2453;DHT22;63678;47.994;7.854;2023-02-20T06:41:37;5.00;99.90
2453;DHT22;63678;47.994;7.854;2023-02-20T06:44:10;4.90;99.90
2453;DHT22;63678;47.994;7.854;2023-02-20T06:46:42;4.90;99.90
2453;DHT22;63678;47.994;7.854;2023-02-20T06:49:15;4.90;99.90
2453;DHT22;63678;47.994;7.854;2023-02-20T06:51:52;5.00;99.90
2453;DHT22;63678;47.994;7.854;2023-02-20T06:57:20;7.50;99.90
2453;DHT22;63678;47.994;7.854;2023-02-20T06:59:53;7.60;99.90
2453;DHT22;63678;47.994;7.854;2023-02-20T07:02:25;6.50;99.90
2453;DHT22;63678;47.994;7.854;2023-02-20T07:04:59;5.70;99.90
2453;DHT22;63678;47.994;7.854;2023-02-20T07:07:32;5.60;99.90
2453;DHT22;63678;47.994;7.854;2023-02-20T07:10:05;5.40;99.90
2453;DHT22;63678;47.994;7.854;2023-02-20T07:12:37;5.40;99.90
2453;DHT22;63678;47.994;7.854;2023-02-20T07:15:11;5.50;99.90
2453;DHT22;63678;47.994;7.854;2023-02-20T07:17:43;5.50;99.90
2453;DHT22;63678;47.994;7.854;2023-02-20T07:23:08;5.70;99.90
2453;DHT22;63678;47.994;7.854;2023-02-20T07:25:41;5.70;99.90
2453;DHT22;63678;47.994;7.854;2023-02-20T07:28:13;5.80;99.90
2453;DHT22;63678;47.994;7.854;2023-02-20T07:30:47;5.80;99.90
2453;DHT22;63678;47.994;7.854;2023-02-20T07:35:55;5.70;99.90
2453;DHT22;63678;47.994;7.854;2023-02-20T07:51:19;6.20;99.90
2453;DHT22;63678;47.994;7.854;2023-02-20T07:53:52;6.30;99.90
2453;DHT22;63678;47.994;7.854;2023-02-20T07:56:26;6.40;99.90
2453;DHT22;63678;47.994;7.854;2023-02-20T08:01:32;6.50;99.90
2453;DHT22;63678;47.994;7.854;2023-02-20T08:04:07;6.60;99.90
2453;DHT22;63678;47.994;7.854;2023-02-20T08:06:39;6.70;99.90
2453;DHT22;63678;47.994;7.854;2023-02-20T08:09:12;6.80;99.90
2453;DHT22;63678;47.994;7.854;2023-02-20T08:11:44;6.90;99.90
2453;DHT22;63678;47.994;7.854;2023-02-20T08:14:16;7.00;99.90
2453;DHT22;63678;47.994;7.854;2023-02-20T08:17:10;7.00;99.90
2453;DHT22;63678;47.994;7.854;2023-02-20T08:19:43;7.10;99.90
2453;DHT22;63678;47.994;7.854;2023-02-20T08:22:16;7.20;99.90
2453;DHT22;63678;47.994;7.854;2023-02-20T08:25:11;7.30;99.90
2453;DHT22;63678;47.994;7.854;2023-02-20T08:27:47;7.50;99.90
2453;DHT22;63678;47.994;7.854;2023-02-20T08:30:24;7.60;99.90
2453;DHT22;63678;47.994;7.854;2023-02-20T08:35:34;7.90;99.90
2453;DHT22;63678;47.994;7.854;2023-02-20T08:38:34;8.10;99.90
2453;DHT22;63678;47.994;7.854;2023-02-20T08:41:10;8.30;99.90
2453;DHT22;63678;47.994;7.854;2023-02-20T08:44:05;8.60;99.90
2453;DHT22;63678;47.994;7.854;2023-02-20T08:46:47;9.40;99.90
2453;DHT22;63678;47.994;7.854;2023-02-20T08:49:20;10.20;99.90
2453;DHT22;63678;47.994;7.854;2023-02-20T08:51:55;10.80;99.90
2453;DHT22;63678;47.994;7.854;2023-02-20T08:54:29;11.60;99.90
2453;DHT22;63678;47.994;7.854;2023-02-20T08:57:01;12.50;99.90
2453;DHT22;63678;47.994;7.854;2023-02-20T08:59:35;13.20;99.90
2453;DHT22;63678;47.994;7.854;2023-02-20T09:02:21;14.60;99.90
2453;DHT22;63678;47.994;7.854;2023-02-20T09:05:01;13.90;99.90
2453;DHT22;63678;47.994;7.854;2023-02-20T09:07:35;12.40;99.90
2453;DHT22;63678;47.994;7.854;2023-02-20T09:10:07;12.60;99.90
2453;DHT22;63678;47.994;7.854;2023-02-20T09:12:41;12.90;99.90
2453;DHT22;63678;47.994;7.854;2023-02-20T09:15:14;12.80;99.90
2453;DHT22;63678;47.994;7.854;2023-02-20T09:17:51;12.50;99.90
2453;DHT22;63678;47.994;7.854;2023-02-20T09:23:22;13.20;99.90
2453;DHT22;63678;47.994;7.854;2023-02-20T09:25:56;13.10;99.90
2453;DHT22;63678;47.994;7.854;2023-02-20T09:28:49;14.20;99.90
2453;DHT22;63678;47.994;7.854;2023-02-20T09:34:14;13.50;99.90
2453;DHT22;63678;47.994;7.854;2023-02-20T09:36:46;14.00;99.90
2453;DHT22;63678;47.994;7.854;2023-02-20T09:39:20;13.50;99.90
2453;DHT22;63678;47.994;7.854;2023-02-20T09:42:20;14.60;99.90
2453;DHT22;63678;47.994;7.854;2023-02-20T09:50:55;15.50;99.90
2453;DHT22;63678;47.994;7.854;2023-02-20T09:54:07;15.30;99.90
2453;DHT22;63678;47.994;7.854;2023-02-20T09:57:13;15.40;99.90
2453;DHT22;63678;47.994;7.854;2023-02-20T09:59:53;15.80;99.90
2453;DHT22;63678;47.994;7.854;2023-02-20T10:02:33;17.30;99.90
2453;DHT22;63678;47.994;7.854;2023-02-20T10:05:24;18.00;99.50
2453;DHT22;63678;47.994;7.854;2023-02-20T10:10:55;16.90;99.90
2453;DHT22;63678;47.994;7.854;2023-02-20T10:16:54;17.20;98.60
2453;DHT22;63678;47.994;7.854;2023-02-20T10:19:52;17.10;99.00
2453;DHT22;63678;47.994;7.854;2023-02-20T10:22:35;17.40;98.90
2453;DHT22;63678;47.994;7.854;2023-02-20T10:25:45;18.00;98.00
2453;DHT22;63678;47.994;7.854;2023-02-20T10:28:21;18.20;97.30
2453;DHT22;63678;47.994;7.854;2023-02-20T10:31:32;17.80;97.70
2453;DHT22;63678;47.994;7.854;2023-02-20T10:34:22;17.10;98.20
2453;DHT22;63678;47.994;7.854;2023-02-20T10:37:09;17.00;98.60
2453;DHT22;63678;47.994;7.854;2023-02-20T10:39:54;17.20;98.40
2453;DHT22;63678;47.994;7.854;2023-02-20T10:42:36;17.10;98.60
2453;DHT22;63678;47.994;7.854;2023-02-20T10:45:18;16.60;98.90
2453;DHT22;63678;47.994;7.854;2023-02-20T10:50:49;16.80;99.30
2453;DHT22;63678;47.994;7.854;2023-02-20T10:53:46;16.60;99.30
2453;DHT22;63678;47.994;7.854;2023-02-20T10:56:30;16.80;99.30
2453;DHT22;63678;47.994;7.854;2023-02-20T10:59:22;17.30;98.80
2453;DHT22;63678;47.994;7.854;2023-02-20T11:02:14;17.60;97.70
2453;DHT22;63678;47.994;7.854;2023-02-20T11:04:56;16.60;98.70
2453;DHT22;63678;47.994;7.854;2023-02-20T11:10:05;17.20;98.30
2453;DHT22;63678;47.994;7.854;2023-02-20T11:12:50;17.20;98.00
2453;DHT22;63678;47.994;7.854;2023-02-20T11:15:25;17.00;98.20
2453;DHT22;63678;47.994;7.854;2023-02-20T11:18:03;17.30;98.10
2453;DHT22;63678;47.994;7.854;2023-02-20T11:20:47;17.80;97.40
2453;DHT22;63678;47.994;7.854;2023-02-20T11:23:37;18.00;97.30
2453;DHT22;63678;47.994;7.854;2023-02-20T11:26:31;17.90;97.50
2453;DHT22;63678;47.994;7.854;2023-02-20T11:29:14;18.80;97.70
2453;DHT22;63678;47.994;7.854;2023-02-20T11:31:48;17.60;97.20
2453;DHT22;63678;47.994;7.854;2023-02-20T11:34:24;18.70;96.80
2453;DHT22;63678;47.994;7.854;2023-02-20T11:37:04;18.10;97.00
2453;DHT22;63678;47.994;7.854;2023-02-20T11:42:17;16.80;98.40
2453;DHT22;63678;47.994;7.854;2023-02-20T11:45:35;16.80;98.50
2453;DHT22;63678;47.994;7.854;2023-02-20T11:48:15;16.70;98.80
2453;DHT22;63678;47.994;7.854;2023-02-20T11:51:30;16.80;98.90
2453;DHT22;63678;47.994;7.854;2023-02-20T11:54:25;15.60;99.30
2453;DHT22;63678;47.994;7.854;2023-02-20T11:57:04;16.40;99.50
2453;DHT22;63678;47.994;7.854;2023-02-20T12:00:13;16.10;99.60
2453;DHT22;63678;47.994;7.854;2023-02-20T12:03:03;16.60;99.80
2453;DHT22;63678;47.994;7.854;2023-02-20T12:05:47;17.20;99.60
2453;DHT22;63678;47.994;7.854;2023-02-20T12:08:55;17.80;98.30
2453;DHT22;63678;47.994;7.854;2023-02-20T12:20:16;17.70;97.80
2453;DHT22;63678;47.994;7.854;2023-02-20T12:26:02;18.20;97.40
2453;DHT22;63678;47.994;7.854;2023-02-20T12:38:12;18.10;97.20
2453;DHT22;63678;47.994;7.854;2023-02-20T12:47:44;18.10;96.80
2453;DHT22;63678;47.994;7.854;2023-02-20T12:50:46;18.00;97.00
2453;DHT22;63678;47.994;7.854;2023-02-20T12:54:13;17.70;97.40
2453;DHT22;63678;47.994;7.854;2023-02-20T12:57:28;17.60;98.00
2453;DHT22;63678;47.994;7.854;2023-02-20T13:00:31;18.20;98.10
2453;DHT22;63678;47.994;7.854;2023-02-20T13:03:15;17.90;98.90
2453;DHT22;63678;47.994;7.854;2023-02-20T13:06:29;19.70;98.90
2453;DHT22;63678;47.994;7.854;2023-02-20T13:09:25;17.50;98.80
2453;DHT22;63678;47.994;7.854;2023-02-20T13:12:09;17.40;99.10
2453;DHT22;63678;47.994;7.854;2023-02-20T13:21:18;17.20;99.70
2453;DHT22;63678;47.994;7.854;2023-02-20T13:24:25;18.90;99.90
2453;DHT22;63678;47.994;7.854;2023-02-20T13:27:30;16.80;99.90
2453;DHT22;63678;47.994;7.854;2023-02-20T13:41:08;16.30;99.90
2453;DHT22;63678;47.994;7.854;2023-02-20T13:46:15;16.10;99.90
2453;DHT22;63678;47.994;7.854;2023-02-20T13:48:52;16.40;99.90
2453;DHT22;63678;47.994;7.854;2023-02-20T13:51:28;16.50;99.90
2453;DHT22;63678;47.994;7.854;2023-02-20T13:59:13;16.80;99.90
2453;DHT22;63678;47.994;7.854;2023-02-20T14:02:01;16.60;99.90
2453;DHT22;63678;47.994;7.854;2023-02-20T14:05:18;17.00;99.90
2453;DHT22;63678;47.994;7.854;2023-02-20T14:08:17;16.40;99.80
2453;DHT22;63678;47.994;7.854;2023-02-20T14:13:24;16.30;99.90
2453;DHT22;63678;47.994;7.854;2023-02-20T14:16:44;16.30;99.90
2453;DHT22;63678;47.994;7.854;2023-02-20T14:19:23;16.30;99.90
2453;DHT22;63678;47.994;7.854;2023-02-20T14:27:43;16.40;99.90
2453;DHT22;63678;47.994;7.854;2023-02-20T14:32:52;16.30;99.90
2453;DHT22;63678;47.994;7.854;2023-02-20T14:41:18;16.20;99.90
2453;DHT22;63678;47.994;7.854;2023-02-20T14:43:57;16.20;99.90
2453;DHT22;63678;47.994;7.854;2023-02-20T14:46:35;16.20;99.90
2453;DHT22;63678;47.994;7.854;2023-02-20T14:49:12;16.20;99.90
2453;DHT22;63678;47.994;7.854;2023-02-20T14:51:46;16.10;99.90
2453;DHT22;63678;47.994;7.854;2023-02-20T14:54:24;16.10;99.90
2453;DHT22;63678;47.994;7.854;2023-02-20T14:57:02;16.10;99.90
2453;DHT22;63678;47.994;7.854;2023-02-20T14:59:39;16.10;99.90
2453;DHT22;63678;47.994;7.854;2023-02-20T15:02:24;16.00;99.70
2453;DHT22;63678;47.994;7.854;2023-02-20T15:05:10;16.00;99.90
2453;DHT22;63678;47.994;7.854;2023-02-20T15:13:13;15.90;99.90
2453;DHT22;63678;47.994;7.854;2023-02-20T15:15:50;15.90;99.90
2453;DHT22;63678;47.994;7.854;2023-02-20T15:18:40;15.80;99.90
2453;DHT22;63678;47.994;7.854;2023-02-20T15:21:14;15.80;99.90
2453;DHT22;63678;47.994;7.854;2023-02-20T15:27:14;15.70;99.80
2453;DHT22;63678;47.994;7.854;2023-02-20T15:30:12;15.80;99.90
2453;DHT22;63678;47.994;7.854;2023-02-20T15:32:51;15.70;99.90
2453;DHT22;63678;47.994;7.854;2023-02-20T15:35:29;15.90;99.90
2453;DHT22;63678;47.994;7.854;2023-02-20T15:38:04;16.90;99.90
2453;DHT22;63678;47.994;7.854;2023-02-20T15:40:38;15.80;99.30
2453;DHT22;63678;47.994;7.854;2023-02-20T15:48:41;15.90;99.50
2453;DHT22;63678;47.994;7.854;2023-02-20T15:51:20;15.70;99.50
2453;DHT22;63678;47.994;7.854;2023-02-20T15:53:57;15.60;99.90
2453;DHT22;63678;47.994;7.854;2023-02-20T15:56:32;15.50;99.50
2453;DHT22;63678;47.994;7.854;2023-02-20T15:59:07;15.50;99.50
2453;DHT22;63678;47.994;7.854;2023-02-20T16:04:15;15.40;99.70
2453;DHT22;63678;47.994;7.854;2023-02-20T16:09:42;15.30;99.60
2453;DHT22;63678;47.994;7.854;2023-02-20T16:12:26;15.30;99.90
2453;DHT22;63678;47.994;7.854;2023-02-20T16:15:00;15.20;99.80
2453;DHT22;63678;47.994;7.854;2023-02-20T16:17:34;15.10;99.90
2453;DHT22;63678;47.994;7.854;2023-02-20T16:20:25;15.10;99.90
2453;DHT22;63678;47.994;7.854;2023-02-20T16:25:33;15.00;99.90
2453;DHT22;63678;47.994;7.854;2023-02-20T16:28:07;14.90;99.90
2453;DHT22;63678;47.994;7.854;2023-02-20T16:30:41;14.80;99.90
2453;DHT22;63678;47.994;7.854;2023-02-20T16:33:20;14.80;99.90
2453;DHT22;63678;47.994;7.854;2023-02-20T16:38:26;14.60;99.90
2453;DHT22;63678;47.994;7.854;2023-02-20T16:43:34;14.30;99.90
2453;DHT22;63678;47.994;7.854;2023-02-20T16:46:08;14.10;99.90
2453;DHT22;63678;47.994;7.854;2023-02-20T16:53:52;13.80;99.90
2453;DHT22;63678;47.994;7.854;2023-02-20T16:56:25;13.60;99.90
2453;DHT22;63678;47.994;7.854;2023-02-20T16:58:59;13.40;99.90
2453;DHT22;63678;47.994;7.854;2023-02-20T17:04:08;13.20;99.90
2453;DHT22;63678;47.994;7.854;2023-02-20T17:06:40;13.20;99.90
2453;DHT22;63678;47.994;7.854;2023-02-20T17:09:13;13.10;99.90
2453;DHT22;63678;47.994;7.854;2023-02-20T17:16:51;12.50;99.90
2453;DHT22;63678;47.994;7.854;2023-02-20T17:24:30;12.10;99.90
2453;DHT22;63678;47.994;7.854;2023-02-20T17:29:37;11.90;99.90
2453;DHT22;63678;47.994;7.854;2023-02-20T17:32:10;11.70;99.90
2453;DHT22;63678;47.994;7.854;2023-02-20T17:37:19;11.50;99.90
2453;DHT22;63678;47.994;7.854;2023-02-20T17:42:26;11.40;99.90
2453;DHT22;63678;47.994;7.854;2023-02-20T17:47:32;11.20;99.90
2453;DHT22;63678;47.994;7.854;2023-02-20T17:50:06;11.20;99.90
2453;DHT22;63678;47.994;7.854;2023-02-20T17:55:21;11.00;99.90
2453;DHT22;63678;47.994;7.854;2023-02-20T17:57:55;10.90;99.90
2453;DHT22;63678;47.994;7.854;2023-02-20T18:00:27;10.70;99.90
2453;DHT22;63678;47.994;7.854;2023-02-20T18:05:32;10.80;99.90
2453;DHT22;63678;47.994;7.854;2023-02-20T18:08:05;10.60;99.90
2453;DHT22;63678;47.994;7.854;2023-02-20T18:10:59;10.40;99.90
2453;DHT22;63678;47.994;7.854;2023-02-20T18:13:32;10.40;99.90
2453;DHT22;63678;47.994;7.854;2023-02-20T18:16:05;10.20;99.90
2453;DHT22;63678;47.994;7.854;2023-02-20T18:21:17;10.10;99.90
2453;DHT22;63678;47.994;7.854;2023-02-20T18:26:24;10.00;99.90
2453;DHT22;63678;47.994;7.854;2023-02-20T18:28:57;9.90;99.90
2453;DHT22;63678;47.994;7.854;2023-02-20T18:31:30;9.80;99.90
2453;DHT22;63678;47.994;7.854;2023-02-20T18:34:02;9.80;99.90
2453;DHT22;63678;47.994;7.854;2023-02-20T18:36:34;9.70;99.90
2453;DHT22;63678;47.994;7.854;2023-02-20T18:39:09;9.60;99.90
2453;DHT22;63678;47.994;7.854;2023-02-20T18:41:49;9.60;99.90
2453;DHT22;63678;47.994;7.854;2023-02-20T18:44:23;9.50;99.90
2453;DHT22;63678;47.994;7.854;2023-02-20T18:46:55;9.50;99.90
2453;DHT22;63678;47.994;7.854;2023-02-20T18:49:28;9.50;99.90
2453;DHT22;63678;47.994;7.854;2023-02-20T18:52:00;9.50;99.90
2453;DHT22;63678;47.994;7.854;2023-02-20T18:54:34;9.40;99.90
2453;DHT22;63678;47.994;7.854;2023-02-20T18:57:06;9.40;99.90
2453;DHT22;63678;47.994;7.854;2023-02-20T18:59:40;9.30;99.90
2453;DHT22;63678;47.994;7.854;2023-02-20T19:02:14;9.30;99.90
2453;DHT22;63678;47.994;7.854;2023-02-20T19:04:49;9.30;99.90
2453;DHT22;63678;47.994;7.854;2023-02-20T19:07:22;9.20;99.90
2453;DHT22;63678;47.994;7.854;2023-02-20T19:09:54;9.10;99.90
2453;DHT22;63678;47.994;7.854;2023-02-20T19:12:27;9.00;99.90
2453;DHT22;63678;47.994;7.854;2023-02-20T19:14:59;8.90;99.90
2453;DHT22;63678;47.994;7.854;2023-02-20T19:17:36;8.80;99.90
2453;DHT22;63678;47.994;7.854;2023-02-20T19:23:00;8.70;99.90
2453;DHT22;63678;47.994;7.854;2023-02-20T19:25:34;8.60;99.90
2453;DHT22;63678;47.994;7.854;2023-02-20T19:28:08;8.70;99.90
2453;DHT22;63678;47.994;7.854;2023-02-20T19:30:42;8.60;99.90
2453;DHT22;63678;47.994;7.854;2023-02-20T19:33:14;8.60;99.90
2453;DHT22;63678;47.994;7.854;2023-02-20T19:35:46;8.60;99.90
2453;DHT22;63678;47.994;7.854;2023-02-20T19:38:19;8.60;99.90
2453;DHT22;63678;47.994;7.854;2023-02-20T19:40:58;8.50;99.90
2453;DHT22;63678;47.994;7.854;2023-02-20T19:43:30;8.40;99.90
2453;DHT22;63678;47.994;7.854;2023-02-20T19:46:02;8.40;99.90
2453;DHT22;63678;47.994;7.854;2023-02-20T19:48:34;8.30;99.90
2453;DHT22;63678;47.994;7.854;2023-02-20T19:51:07;8.30;99.90
2453;DHT22;63678;47.994;7.854;2023-02-20T19:53:40;8.60;99.90
2453;DHT22;63678;47.994;7.854;2023-02-20T19:56:12;8.60;99.90
2453;DHT22;63678;47.994;7.854;2023-02-20T19:58:45;8.40;99.90
2453;DHT22;63678;47.994;7.854;2023-02-20T20:01:18;8.30;99.90
2453;DHT22;63678;47.994;7.854;2023-02-20T20:03:51;8.20;99.90
2453;DHT22;63678;47.994;7.854;2023-02-20T20:06:54;8.20;99.90
2453;DHT22;63678;47.994;7.854;2023-02-20T20:09:26;8.10;99.90
2453;DHT22;63678;47.994;7.854;2023-02-20T20:17:36;8.20;99.90
2453;DHT22;63678;47.994;7.854;2023-02-20T20:20:09;8.10;99.90
2453;DHT22;63678;47.994;7.854;2023-02-20T20:22:42;8.20;99.90
2453;DHT22;63678;47.994;7.854;2023-02-20T20:25:15;8.10;99.90
2453;DHT22;63678;47.994;7.854;2023-02-20T20:27:52;8.00;99.90
2453;DHT22;63678;47.994;7.854;2023-02-20T20:30:27;8.10;99.90
2453;DHT22;63678;47.994;7.854;2023-02-20T20:33:00;8.00;99.90
2453;DHT22;63678;47.994;7.854;2023-02-20T20:35:32;8.10;99.90
2453;DHT22;63678;47.994;7.854;2023-02-20T20:38:04;8.00;99.90
2453;DHT22;63678;47.994;7.854;2023-02-20T20:43:11;8.00;99.90
2453;DHT22;63678;47.994;7.854;2023-02-20T20:45:46;8.10;99.90
2453;DHT22;63678;47.994;7.854;2023-02-20T20:48:18;8.10;99.90
2453;DHT22;63678;47.994;7.854;2023-02-20T20:50:50;8.10;99.90
2453;DHT22;63678;47.994;7.854;2023-02-20T20:53:22;8.10;99.90
2453;DHT22;63678;47.994;7.854;2023-02-20T20:55:54;8.00;99.90
2453;DHT22;63678;47.994;7.854;2023-02-20T20:58:27;8.10;99.90
2453;DHT22;63678;47.994;7.854;2023-02-20T21:03:32;8.10;99.90
2453;DHT22;63678;47.994;7.854;2023-02-20T21:06:04;8.10;99.90
2453;DHT22;63678;47.994;7.854;2023-02-20T21:11:09;8.10;99.90
2453;DHT22;63678;47.994;7.854;2023-02-20T21:13:45;8.00;99.90
2453;DHT22;63678;47.994;7.854;2023-02-20T21:18:50;7.70;99.90
2453;DHT22;63678;47.994;7.854;2023-02-20T21:21:27;7.60;99.90
2453;DHT22;63678;47.994;7.854;2023-02-20T21:24:00;7.60;99.90
2453;DHT22;63678;47.994;7.854;2023-02-20T21:26:32;7.60;99.90
2453;DHT22;63678;47.994;7.854;2023-02-20T21:29:05;7.60;99.90
2453;DHT22;63678;47.994;7.854;2023-02-20T21:31:42;7.60;99.90
2453;DHT22;63678;47.994;7.854;2023-02-20T21:34:15;7.60;99.90
2453;DHT22;63678;47.994;7.854;2023-02-20T21:36:48;7.60;99.90
2453;DHT22;63678;47.994;7.854;2023-02-20T21:39:20;7.50;99.90
2453;DHT22;63678;47.994;7.854;2023-02-20T21:47:19;7.60;99.90
2453;DHT22;63678;47.994;7.854;2023-02-20T21:49:51;7.60;99.90
2453;DHT22;63678;47.994;7.854;2023-02-20T21:52:23;7.60;99.90
2453;DHT22;63678;47.994;7.854;2023-02-20T21:54:56;7.50;99.90
2453;DHT22;63678;47.994;7.854;2023-02-20T21:57:28;7.50;99.90
2453;DHT22;63678;47.994;7.854;2023-02-20T22:00:01;7.60;99.90
2453;DHT22;63678;47.994;7.854;2023-02-20T22:02:36;7.50;99.90